OCN75 CYHZ-EDDF
Flight info
| Callsign | OCN75 |
|---|---|
| Flight time | N/A |
| Altitude | 39000 |
| Route | IGTAS DCT NOTOP DCT JOOPY/M081F400 DCT 49N050W 50N040W 51N030W 52N020W DCT LIMRI DCT XETBO/N0457F390 DCT EVRIN DCT UNZIB DCT NUCHU L607 KONAN UL607 SPI T180 NIVNU T847 IMCOM IMCOM1A |
| Aircraft | A333/H-SDE2E3FGHIJ3J4J5LM1OP2RWXYZ/LB1D1 |
Departure
| Time | 2026-05-06 13:26 |
|---|---|
| Airport | Halifax / Stanfield International Airport (CYHZ) |
Arrival
| Time | N/A |
|---|---|
| Airport | Frankfurt Main Airport (EDDF) |
| Time | Latitude | Longitude | Altitude | Speed | Heading |
|---|---|---|---|---|---|
| 2026-05-06 12:29 | 44.88887 | -63.51487 | 455 ft | 0 kts | 215° |
| 2026-05-06 13:16 | 44.88900 | -63.51475 | 453 ft | 4 kts | 210° |
| 2026-05-06 13:17 | 44.88924 | -63.51458 | 453 ft | 4 kts | 198° |
| 2026-05-06 13:17 | 44.88950 | -63.51450 | 453 ft | 4 kts | 179° |
| 2026-05-06 13:17 | 44.88975 | -63.51457 | 453 ft | 4 kts | 145° |
| 2026-05-06 13:17 | 44.88986 | -63.51469 | 451 ft | 0 kts | 126° |
| 2026-05-06 13:20 | 44.88982 | -63.51463 | 453 ft | 2 kts | 126° |
| 2026-05-06 13:21 | 44.88972 | -63.51444 | 454 ft | 3 kts | 126° |
| 2026-05-06 13:21 | 44.88951 | -63.51403 | 455 ft | 7 kts | 126° |
| 2026-05-06 13:21 | 44.88953 | -63.51344 | 455 ft | 7 kts | 52° |
| 2026-05-06 13:21 | 44.88999 | -63.51294 | 455 ft | 10 kts | 35° |
| 2026-05-06 13:22 | 44.89065 | -63.51227 | 452 ft | 14 kts | 35° |
| 2026-05-06 13:22 | 44.89072 | -63.51139 | 452 ft | 10 kts | 124° |
| 2026-05-06 13:22 | 44.89024 | -63.51047 | 452 ft | 13 kts | 127° |
| 2026-05-06 13:22 | 44.88968 | -63.50937 | 452 ft | 14 kts | 124° |
| 2026-05-06 13:23 | 44.88916 | -63.50830 | 453 ft | 13 kts | 124° |
| 2026-05-06 13:23 | 44.88906 | -63.50750 | 453 ft | 8 kts | 56° |
| 2026-05-06 13:23 | 44.88956 | -63.50693 | 454 ft | 10 kts | 37° |
| 2026-05-06 13:23 | 44.89000 | -63.50630 | 455 ft | 8 kts | 63° |
| 2026-05-06 13:24 | 44.89002 | -63.50617 | 455 ft | 1 kts | 74° |
| 2026-05-06 13:24 | 44.89001 | -63.50598 | 455 ft | 3 kts | 97° |
| 2026-05-06 13:24 | 44.88989 | -63.50550 | 455 ft | 7 kts | 111° |
| 2026-05-06 13:24 | 44.88959 | -63.50492 | 455 ft | 9 kts | 128° |
| 2026-05-06 13:25 | 44.88918 | -63.50428 | 455 ft | 8 kts | 146° |
| 2026-05-06 13:25 | 44.88873 | -63.50443 | 454 ft | 7 kts | 218° |
| 2026-05-06 13:25 | 44.88775 | -63.50540 | 455 ft | 35 kts | 215° |
| 2026-05-06 13:25 | 44.88407 | -63.50904 | 455 ft | 92 kts | 214° |
| 2026-05-06 13:26 | 44.87750 | -63.51556 | 456 ft | 141 kts | 214° |
| 2026-05-06 13:26 | 44.86897 | -63.52411 | 984 ft | 148 kts | 216° |
| 2026-05-06 13:26 | 44.86118 | -63.53264 | 1907 ft | 139 kts | 219° |
| 2026-05-06 13:26 | 44.85364 | -63.54151 | 2467 ft | 146 kts | 223° |
| 2026-05-06 13:27 | 44.84539 | -63.55141 | 2791 ft | 164 kts | 221° |
| 2026-05-06 13:27 | 44.83597 | -63.56197 | 3147 ft | 182 kts | 215° |
| 2026-05-06 13:27 | 44.82317 | -63.56761 | 3473 ft | 211 kts | 188° |
| 2026-05-06 13:27 | 44.80808 | -63.56135 | 3837 ft | 247 kts | 157° |
| 2026-05-06 13:28 | 44.79559 | -63.54290 | 4309 ft | 279 kts | 127° |
| 2026-05-06 13:28 | 44.79019 | -63.51546 | 4846 ft | 304 kts | 97° |
| 2026-05-06 13:28 | 44.79318 | -63.48556 | 5480 ft | 313 kts | 77° |
| 2026-05-06 13:28 | 44.79988 | -63.45646 | 6222 ft | 312 kts | 73° |
| 2026-05-06 13:29 | 44.80727 | -63.42775 | 6950 ft | 312 kts | 73° |
| 2026-05-06 13:29 | 44.81462 | -63.39879 | 7586 ft | 316 kts | 73° |
| 2026-05-06 13:29 | 44.82231 | -63.36958 | 8204 ft | 320 kts | 72° |
| 2026-05-06 13:29 | 44.83029 | -63.34010 | 8849 ft | 324 kts | 71° |
| 2026-05-06 13:30 | 44.83982 | -63.31103 | 9499 ft | 330 kts | 64° |
| 2026-05-06 13:30 | 44.85053 | -63.28269 | 10119 ft | 335 kts | 63° |
| 2026-05-06 13:30 | 44.86172 | -63.25318 | 10410 ft | 350 kts | 63° |
| 2026-05-06 13:30 | 44.87511 | -63.22351 | 10630 ft | 367 kts | 52° |
| 2026-05-06 13:31 | 44.89197 | -63.19547 | 10872 ft | 382 kts | 46° |
| 2026-05-06 13:31 | 44.91081 | -63.16811 | 11126 ft | 395 kts | 43° |
| 2026-05-06 13:31 | 44.93088 | -63.14106 | 11575 ft | 401 kts | 41° |
| 2026-05-06 13:31 | 44.95142 | -63.11418 | 12161 ft | 404 kts | 41° |
| 2026-05-06 13:32 | 44.97217 | -63.08713 | 12686 ft | 408 kts | 41° |
| 2026-05-06 13:32 | 44.99302 | -63.05973 | 13270 ft | 411 kts | 41° |
| 2026-05-06 13:32 | 45.01364 | -63.03238 | 13835 ft | 413 kts | 41° |
| 2026-05-06 13:32 | 45.03461 | -63.00432 | 14354 ft | 415 kts | 41° |
| 2026-05-06 13:33 | 45.05551 | -62.97614 | 14872 ft | 417 kts | 43° |
| 2026-05-06 13:33 | 45.07465 | -62.94519 | 15381 ft | 420 kts | 53° |
| 2026-05-06 13:33 | 45.09117 | -62.91099 | 15868 ft | 422 kts | 57° |
| 2026-05-06 13:33 | 45.10672 | -62.87555 | 16387 ft | 424 kts | 59° |
| 2026-05-06 13:34 | 45.12159 | -62.83954 | 16926 ft | 424 kts | 61° |
| 2026-05-06 13:34 | 45.13622 | -62.80309 | 17417 ft | 426 kts | 61° |
| 2026-05-06 13:34 | 45.15080 | -62.76644 | 17864 ft | 429 kts | 62° |
| 2026-05-06 13:34 | 45.16548 | -62.72962 | 18326 ft | 431 kts | 62° |
| 2026-05-06 13:35 | 45.18032 | -62.69254 | 18716 ft | 433 kts | 61° |
| 2026-05-06 13:35 | 45.19525 | -62.65541 | 19077 ft | 436 kts | 61° |
| 2026-05-06 13:35 | 45.21034 | -62.61801 | 19448 ft | 437 kts | 61° |
| 2026-05-06 13:35 | 45.22550 | -62.58048 | 19736 ft | 439 kts | 61° |
| 2026-05-06 13:36 | 45.24071 | -62.54280 | 20068 ft | 441 kts | 61° |
| 2026-05-06 13:36 | 45.25576 | -62.50547 | 20387 ft | 442 kts | 60° |
| 2026-05-06 13:36 | 45.27131 | -62.46685 | 20689 ft | 445 kts | 60° |
| 2026-05-06 13:36 | 45.28666 | -62.42867 | 21041 ft | 445 kts | 60° |
| 2026-05-06 13:37 | 45.30205 | -62.39034 | 21282 ft | 448 kts | 60° |
| 2026-05-06 13:37 | 45.31750 | -62.35180 | 21622 ft | 450 kts | 60° |
| 2026-05-06 13:37 | 45.33300 | -62.31306 | 21923 ft | 451 kts | 60° |
| 2026-05-06 13:37 | 45.34854 | -62.27418 | 22155 ft | 454 kts | 60° |
| 2026-05-06 13:38 | 45.36411 | -62.23513 | 22508 ft | 455 kts | 60° |
| 2026-05-06 13:38 | 45.37968 | -62.19606 | 22949 ft | 452 kts | 60° |
| 2026-05-06 13:38 | 45.39515 | -62.15718 | 23251 ft | 453 kts | 60° |
| 2026-05-06 13:38 | 45.41067 | -62.11813 | 23551 ft | 454 kts | 59° |
| 2026-05-06 13:39 | 45.42609 | -62.07926 | 23813 ft | 456 kts | 60° |
| 2026-05-06 13:39 | 45.44170 | -62.03986 | 24035 ft | 459 kts | 59° |
| 2026-05-06 13:39 | 45.45723 | -62.00020 | 24292 ft | 459 kts | 60° |
| 2026-05-06 13:39 | 45.47241 | -61.95984 | 24490 ft | 463 kts | 62° |
| 2026-05-06 13:40 | 45.48731 | -61.91919 | 24700 ft | 465 kts | 62° |
| 2026-05-06 13:40 | 45.50218 | -61.87819 | 24988 ft | 465 kts | 62° |
| 2026-05-06 13:40 | 45.51711 | -61.83691 | 25090 ft | 471 kts | 62° |
| 2026-05-06 13:40 | 45.53211 | -61.79543 | 25305 ft | 472 kts | 62° |
| 2026-05-06 13:41 | 45.54722 | -61.75371 | 25598 ft | 473 kts | 62° |
| 2026-05-06 13:41 | 45.56236 | -61.71197 | 25806 ft | 475 kts | 62° |
| 2026-05-06 13:41 | 45.57757 | -61.67006 | 26091 ft | 476 kts | 62° |
| 2026-05-06 13:41 | 45.59282 | -61.62801 | 26325 ft | 477 kts | 62° |
| 2026-05-06 13:42 | 45.60808 | -61.58590 | 26543 ft | 479 kts | 62° |
| 2026-05-06 13:42 | 45.62338 | -61.54357 | 26818 ft | 480 kts | 62° |
| 2026-05-06 13:42 | 45.63875 | -61.50100 | 27054 ft | 481 kts | 62° |
| 2026-05-06 13:42 | 45.65407 | -61.45850 | 27434 ft | 479 kts | 62° |
| 2026-05-06 13:43 | 45.66926 | -61.41626 | 27843 ft | 477 kts | 62° |
| 2026-05-06 13:43 | 45.68446 | -61.37398 | 28042 ft | 479 kts | 62° |
| 2026-05-06 13:43 | 45.69970 | -61.33149 | 28237 ft | 481 kts | 62° |
| 2026-05-06 13:43 | 45.71501 | -61.28875 | 28460 ft | 483 kts | 62° |
| 2026-05-06 13:44 | 45.72515 | -61.26041 | 28599 ft | 484 kts | 62° |
| 2026-05-06 13:44 | 45.74049 | -61.21746 | 28835 ft | 486 kts | 62° |
| 2026-05-06 13:44 | 45.75588 | -61.17430 | 29053 ft | 487 kts | 62° |
| 2026-05-06 13:44 | 45.77132 | -61.13093 | 29200 ft | 490 kts | 62° |
| 2026-05-06 13:45 | 45.78677 | -61.08747 | 29441 ft | 491 kts | 62° |
| 2026-05-06 13:45 | 45.82288 | -60.98561 | 29962 ft | 494 kts | 62° |
| 2026-05-06 13:45 | 45.83339 | -60.95588 | 30101 ft | 496 kts | 62° |
| 2026-05-06 13:46 | 45.84899 | -60.91171 | 30309 ft | 497 kts | 62° |
| 2026-05-06 13:46 | 45.86460 | -60.86742 | 30491 ft | 499 kts | 62° |
| 2026-05-06 13:46 | 45.88027 | -60.82291 | 30689 ft | 500 kts | 62° |
| 2026-05-06 13:46 | 45.89595 | -60.77829 | 30874 ft | 501 kts | 62° |
| 2026-05-06 13:47 | 45.91167 | -60.73346 | 31012 ft | 503 kts | 62° |
| 2026-05-06 13:47 | 45.92721 | -60.68908 | 31257 ft | 504 kts | 62° |
| 2026-05-06 13:47 | 45.94293 | -60.64413 | 31593 ft | 502 kts | 62° |
| 2026-05-06 13:47 | 45.95857 | -60.59930 | 31924 ft | 501 kts | 62° |
| 2026-05-06 13:48 | 45.97417 | -60.55451 | 32274 ft | 500 kts | 62° |
| 2026-05-06 13:48 | 45.98971 | -60.50982 | 32634 ft | 499 kts | 62° |
| 2026-05-06 13:48 | 46.00522 | -60.46517 | 32995 ft | 498 kts | 62° |
| 2026-05-06 13:48 | 46.02069 | -60.42055 | 33279 ft | 499 kts | 62° |
| 2026-05-06 13:49 | 46.03616 | -60.37586 | 33630 ft | 498 kts | 62° |
| 2026-05-06 13:49 | 46.05166 | -60.33103 | 33911 ft | 499 kts | 63° |
| 2026-05-06 13:49 | 46.06707 | -60.28632 | 34273 ft | 498 kts | 63° |
| 2026-05-06 13:49 | 46.08243 | -60.24172 | 34605 ft | 497 kts | 63° |
| 2026-05-06 13:50 | 46.09777 | -60.19709 | 34854 ft | 497 kts | 63° |
| 2026-05-06 13:50 | 46.11310 | -60.15240 | 35076 ft | 498 kts | 63° |
| 2026-05-06 13:50 | 46.12843 | -60.10766 | 35352 ft | 498 kts | 63° |
| 2026-05-06 13:50 | 46.14378 | -60.06280 | 35648 ft | 497 kts | 63° |
| 2026-05-06 13:51 | 46.15901 | -60.01819 | 36005 ft | 495 kts | 63° |
| 2026-05-06 13:51 | 46.17421 | -59.97359 | 36227 ft | 496 kts | 63° |
| 2026-05-06 13:51 | 46.18942 | -59.92889 | 36409 ft | 497 kts | 64° |
| 2026-05-06 13:51 | 46.20464 | -59.88408 | 36642 ft | 498 kts | 64° |
| 2026-05-06 13:52 | 46.21986 | -59.83920 | 36843 ft | 498 kts | 64° |
| 2026-05-06 13:52 | 46.23508 | -59.79422 | 37070 ft | 498 kts | 64° |
| 2026-05-06 13:52 | 46.25008 | -59.74985 | 37284 ft | 498 kts | 64° |
| 2026-05-06 13:52 | 46.26527 | -59.70482 | 37514 ft | 499 kts | 64° |
| 2026-05-06 13:53 | 46.28046 | -59.65971 | 37755 ft | 498 kts | 64° |
| 2026-05-06 13:53 | 46.29563 | -59.61460 | 37969 ft | 499 kts | 64° |
| 2026-05-06 13:53 | 46.31078 | -59.56947 | 38168 ft | 499 kts | 64° |
| 2026-05-06 13:53 | 46.32590 | -59.52434 | 38380 ft | 499 kts | 64° |
| 2026-05-06 13:54 | 46.34103 | -59.47911 | 38570 ft | 499 kts | 64° |
| 2026-05-06 13:54 | 46.35612 | -59.43390 | 38742 ft | 499 kts | 64° |
| 2026-05-06 13:54 | 46.37122 | -59.38863 | 38930 ft | 499 kts | 64° |
| 2026-05-06 13:54 | 46.38628 | -59.34336 | 39081 ft | 500 kts | 64° |
| 2026-05-06 13:55 | 46.41639 | -59.25264 | 39115 ft | 498 kts | 65° |
| 2026-05-06 13:55 | 46.44631 | -59.16218 | 39115 ft | 496 kts | 65° |
| 2026-05-06 13:56 | 46.47603 | -59.07202 | 39138 ft | 495 kts | 65° |
| 2026-05-06 13:56 | 46.50569 | -58.98171 | 39140 ft | 496 kts | 65° |
| 2026-05-06 13:57 | 46.53526 | -58.89134 | 39135 ft | 496 kts | 65° |
| 2026-05-06 13:57 | 46.56481 | -58.80073 | 39127 ft | 496 kts | 65° |
| 2026-05-06 13:58 | 46.59429 | -58.71002 | 39144 ft | 496 kts | 65° |
| 2026-05-06 13:58 | 46.62370 | -58.61923 | 39140 ft | 496 kts | 65° |
| 2026-05-06 13:59 | 46.65301 | -58.52839 | 39140 ft | 496 kts | 65° |
| 2026-05-06 13:59 | 46.68227 | -58.43741 | 39140 ft | 496 kts | 66° |
| 2026-05-06 14:00 | 46.71142 | -58.34643 | 39152 ft | 495 kts | 66° |
| 2026-05-06 14:00 | 46.74046 | -58.25548 | 39160 ft | 495 kts | 66° |
| 2026-05-06 14:01 | 46.76925 | -58.16500 | 39152 ft | 495 kts | 66° |
| 2026-05-06 14:01 | 46.79820 | -58.07371 | 39157 ft | 495 kts | 66° |
| 2026-05-06 14:02 | 46.82702 | -57.98245 | 39157 ft | 495 kts | 66° |
| 2026-05-06 14:02 | 46.85578 | -57.89108 | 39157 ft | 495 kts | 66° |
| 2026-05-06 14:03 | 46.88445 | -57.79969 | 39165 ft | 495 kts | 66° |
| 2026-05-06 14:03 | 46.91304 | -57.70821 | 39168 ft | 494 kts | 66° |
| 2026-05-06 14:04 | 46.94151 | -57.61675 | 39165 ft | 493 kts | 66° |
| 2026-05-06 14:04 | 46.96983 | -57.52549 | 39164 ft | 491 kts | 66° |
| 2026-05-06 14:05 | 46.99805 | -57.43420 | 39180 ft | 491 kts | 67° |
| 2026-05-06 14:05 | 47.02608 | -57.34319 | 39179 ft | 490 kts | 67° |
| 2026-05-06 14:06 | 47.05406 | -57.25202 | 39182 ft | 490 kts | 67° |
| 2026-05-06 14:06 | 47.08194 | -57.16084 | 39187 ft | 490 kts | 67° |
| 2026-05-06 14:07 | 47.10974 | -57.06958 | 39195 ft | 490 kts | 68° |
| 2026-05-06 14:07 | 47.13747 | -56.97827 | 39184 ft | 489 kts | 68° |
| 2026-05-06 14:08 | 47.16503 | -56.88711 | 39184 ft | 489 kts | 68° |
| 2026-05-06 14:08 | 47.19253 | -56.79589 | 39167 ft | 486 kts | 68° |
| 2026-05-06 14:09 | 47.21975 | -56.70522 | 39169 ft | 484 kts | 68° |
| 2026-05-06 14:09 | 47.24686 | -56.61457 | 39163 ft | 485 kts | 68° |
| 2026-05-06 14:10 | 47.27396 | -56.52362 | 39146 ft | 485 kts | 68° |
| 2026-05-06 14:10 | 47.30101 | -56.43255 | 39144 ft | 485 kts | 68° |
| 2026-05-06 14:11 | 47.32798 | -56.34141 | 39135 ft | 485 kts | 68° |
| 2026-05-06 14:11 | 47.35485 | -56.25024 | 39136 ft | 486 kts | 68° |
| 2026-05-06 14:12 | 47.38178 | -56.15854 | 39118 ft | 487 kts | 69° |
| 2026-05-06 14:12 | 47.40867 | -56.06663 | 39119 ft | 488 kts | 69° |
| 2026-05-06 14:13 | 47.43545 | -55.97476 | 39105 ft | 487 kts | 68° |
| 2026-05-06 14:13 | 47.46197 | -55.88344 | 39096 ft | 486 kts | 68° |
| 2026-05-06 14:14 | 47.48870 | -55.79102 | 39106 ft | 491 kts | 68° |
| 2026-05-06 14:14 | 47.51549 | -55.69805 | 39113 ft | 492 kts | 69° |
| 2026-05-06 14:15 | 47.54225 | -55.60483 | 39118 ft | 492 kts | 69° |
| 2026-05-06 14:15 | 47.56893 | -55.51156 | 39146 ft | 492 kts | 69° |
| 2026-05-06 14:16 | 47.59554 | -55.41811 | 39157 ft | 493 kts | 68° |
| 2026-05-06 14:16 | 47.62211 | -55.32449 | 39157 ft | 493 kts | 68° |
| 2026-05-06 14:17 | 47.64862 | -55.23076 | 39167 ft | 493 kts | 68° |
| 2026-05-06 14:17 | 47.67503 | -55.13696 | 39195 ft | 493 kts | 68° |
| 2026-05-06 14:18 | 47.70141 | -55.04287 | 39202 ft | 492 kts | 68° |
| 2026-05-06 14:18 | 47.72760 | -54.94912 | 39201 ft | 491 kts | 68° |
| 2026-05-06 14:19 | 47.75366 | -54.85550 | 39210 ft | 491 kts | 68° |
| 2026-05-06 14:19 | 47.77965 | -54.76174 | 39207 ft | 491 kts | 68° |
| 2026-05-06 14:20 | 47.80556 | -54.66787 | 39207 ft | 491 kts | 68° |
| 2026-05-06 14:20 | 47.83143 | -54.57381 | 39195 ft | 491 kts | 68° |
| 2026-05-06 14:21 | 47.85721 | -54.47973 | 39197 ft | 491 kts | 68° |
| 2026-05-06 14:21 | 47.88290 | -54.38555 | 39196 ft | 491 kts | 68° |
| 2026-05-06 14:22 | 47.90851 | -54.29130 | 39199 ft | 491 kts | 68° |
| 2026-05-06 14:22 | 47.93391 | -54.19744 | 39186 ft | 490 kts | 68° |
| 2026-05-06 14:23 | 47.95935 | -54.10309 | 39195 ft | 490 kts | 68° |
| 2026-05-06 14:23 | 47.98472 | -54.00862 | 39190 ft | 490 kts | 68° |
| 2026-05-06 14:24 | 48.01000 | -53.91407 | 39182 ft | 490 kts | 68° |
| 2026-05-06 14:24 | 48.03520 | -53.81945 | 39195 ft | 491 kts | 68° |
| 2026-05-06 14:25 | 48.06038 | -53.72452 | 39182 ft | 491 kts | 68° |
| 2026-05-06 14:25 | 48.08550 | -53.62943 | 39179 ft | 491 kts | 68° |
| 2026-05-06 14:26 | 48.11054 | -53.53424 | 39171 ft | 491 kts | 68° |
| 2026-05-06 14:26 | 48.13530 | -53.43973 | 39178 ft | 492 kts | 68° |
| 2026-05-06 14:27 | 48.16032 | -53.34388 | 39169 ft | 495 kts | 68° |
| 2026-05-06 14:27 | 48.18529 | -53.24777 | 39155 ft | 495 kts | 68° |
| 2026-05-06 14:28 | 48.21019 | -53.15154 | 39154 ft | 495 kts | 68° |
| 2026-05-06 14:28 | 48.23502 | -53.05517 | 39148 ft | 495 kts | 68° |
| 2026-05-06 14:29 | 48.25975 | -52.95881 | 39149 ft | 494 kts | 68° |
| 2026-05-06 14:29 | 48.28018 | -52.87885 | 39142 ft | 494 kts | 68° |
| 2026-05-06 14:30 | 48.30470 | -52.78254 | 39148 ft | 494 kts | 68° |
| 2026-05-06 14:30 | 48.32916 | -52.68606 | 39140 ft | 494 kts | 68° |
| 2026-05-06 14:31 | 48.35354 | -52.58951 | 39144 ft | 494 kts | 68° |
| 2026-05-06 14:31 | 48.37781 | -52.49294 | 39135 ft | 493 kts | 68° |
| 2026-05-06 14:32 | 48.40199 | -52.39635 | 39144 ft | 493 kts | 68° |
| 2026-05-06 14:32 | 48.42609 | -52.29963 | 39144 ft | 493 kts | 69° |
| 2026-05-06 14:33 | 48.45009 | -52.20294 | 39138 ft | 493 kts | 69° |
| 2026-05-06 14:33 | 48.47402 | -52.10609 | 39138 ft | 493 kts | 69° |
| 2026-05-06 14:34 | 48.49785 | -52.00926 | 39143 ft | 493 kts | 68° |
| 2026-05-06 14:34 | 48.52247 | -51.91276 | 39137 ft | 493 kts | 67° |
| 2026-05-06 14:35 | 48.54760 | -51.81664 | 39137 ft | 492 kts | 67° |
| 2026-05-06 14:35 | 48.57265 | -51.72043 | 39119 ft | 493 kts | 67° |
| 2026-05-06 14:36 | 48.59749 | -51.62417 | 39142 ft | 491 kts | 67° |
| 2026-05-06 14:36 | 48.62211 | -51.52815 | 39140 ft | 490 kts | 68° |
| 2026-05-06 14:37 | 48.64666 | -51.43199 | 39140 ft | 490 kts | 68° |
| 2026-05-06 14:37 | 48.67094 | -51.33649 | 39146 ft | 490 kts | 68° |
| 2026-05-06 14:38 | 48.69530 | -51.24024 | 39144 ft | 490 kts | 67° |
| 2026-05-06 14:38 | 48.71963 | -51.14375 | 39142 ft | 490 kts | 67° |
| 2026-05-06 14:39 | 48.74389 | -51.04713 | 39144 ft | 490 kts | 68° |
| 2026-05-06 14:39 | 48.76804 | -50.95052 | 39151 ft | 490 kts | 68° |
| 2026-05-06 14:40 | 48.79213 | -50.85372 | 39150 ft | 491 kts | 67° |
| 2026-05-06 14:40 | 48.81619 | -50.75662 | 39149 ft | 491 kts | 67° |
| 2026-05-06 14:41 | 48.84013 | -50.65956 | 39143 ft | 491 kts | 67° |
| 2026-05-06 14:41 | 48.86398 | -50.56248 | 39146 ft | 491 kts | 67° |
| 2026-05-06 14:42 | 48.88776 | -50.46525 | 39146 ft | 491 kts | 68° |
| 2026-05-06 14:42 | 48.91146 | -50.36795 | 39143 ft | 491 kts | 68° |
| 2026-05-06 14:43 | 48.93506 | -50.27058 | 39143 ft | 491 kts | 68° |
| 2026-05-06 14:43 | 48.95846 | -50.17365 | 39151 ft | 491 kts | 68° |
| 2026-05-06 14:44 | 48.98207 | -50.07539 | 39151 ft | 491 kts | 68° |
| 2026-05-06 14:45 | 49.01089 | -49.92622 | 39148 ft | 494 kts | 75° |
| 2026-05-06 14:45 | 49.02591 | -49.82424 | 39152 ft | 494 kts | 76° |
| 2026-05-06 14:46 | 49.04043 | -49.72183 | 39154 ft | 493 kts | 76° |
| 2026-05-06 14:46 | 49.05488 | -49.61953 | 39157 ft | 493 kts | 76° |
| 2026-05-06 14:47 | 49.06934 | -49.51717 | 39171 ft | 494 kts | 75° |
| 2026-05-06 14:47 | 49.08377 | -49.41458 | 39162 ft | 495 kts | 75° |
| 2026-05-06 14:48 | 49.09814 | -49.31185 | 39162 ft | 495 kts | 76° |
| 2026-05-06 14:48 | 49.11240 | -49.20906 | 39168 ft | 495 kts | 76° |
| 2026-05-06 14:49 | 49.12657 | -49.10622 | 39165 ft | 495 kts | 76° |
| 2026-05-06 14:49 | 49.14063 | -49.00340 | 39169 ft | 494 kts | 75° |
| 2026-05-06 14:50 | 49.15459 | -48.90064 | 39170 ft | 494 kts | 75° |
| 2026-05-06 14:50 | 49.16847 | -48.79776 | 39163 ft | 494 kts | 76° |
| 2026-05-06 14:51 | 49.18224 | -48.69491 | 39165 ft | 494 kts | 76° |
| 2026-05-06 14:51 | 49.19584 | -48.59263 | 39171 ft | 494 kts | 76° |
| 2026-05-06 14:52 | 49.20944 | -48.48964 | 39181 ft | 494 kts | 76° |
| 2026-05-06 14:52 | 49.22295 | -48.38654 | 39171 ft | 494 kts | 76° |
| 2026-05-06 14:53 | 49.23636 | -48.28340 | 39177 ft | 494 kts | 76° |
| 2026-05-06 14:53 | 49.24967 | -48.18035 | 39175 ft | 493 kts | 76° |
| 2026-05-06 14:54 | 49.26288 | -48.07727 | 39176 ft | 493 kts | 76° |
| 2026-05-06 14:54 | 49.27599 | -47.97421 | 39189 ft | 493 kts | 76° |
| 2026-05-06 14:55 | 49.28901 | -47.87106 | 39181 ft | 493 kts | 76° |
| 2026-05-06 14:55 | 49.30192 | -47.76799 | 39176 ft | 493 kts | 76° |
| 2026-05-06 14:56 | 49.31476 | -47.66477 | 39182 ft | 493 kts | 76° |
| 2026-05-06 14:56 | 49.32749 | -47.56157 | 39180 ft | 493 kts | 76° |
| 2026-05-06 14:57 | 49.34004 | -47.45898 | 39187 ft | 492 kts | 76° |
| 2026-05-06 14:57 | 49.35257 | -47.35585 | 39179 ft | 491 kts | 76° |
| 2026-05-06 14:58 | 49.36500 | -47.25273 | 39186 ft | 491 kts | 76° |
| 2026-05-06 14:58 | 49.37734 | -47.14955 | 39187 ft | 492 kts | 76° |
| 2026-05-06 14:59 | 49.38958 | -47.04637 | 39180 ft | 492 kts | 76° |
| 2026-05-06 14:59 | 49.40173 | -46.94311 | 39190 ft | 491 kts | 76° |
| 2026-05-06 15:00 | 49.41379 | -46.83981 | 39188 ft | 492 kts | 76° |
| 2026-05-06 15:00 | 49.42577 | -46.73635 | 39198 ft | 492 kts | 76° |
| 2026-05-06 15:01 | 49.43765 | -46.63287 | 39196 ft | 492 kts | 76° |
| 2026-05-06 15:01 | 49.44946 | -46.52924 | 39189 ft | 492 kts | 76° |
| 2026-05-06 15:02 | 49.46108 | -46.42629 | 39205 ft | 492 kts | 76° |
| 2026-05-06 15:02 | 49.47270 | -46.32261 | 39192 ft | 493 kts | 76° |
| 2026-05-06 15:03 | 49.48424 | -46.21865 | 39193 ft | 493 kts | 76° |
| 2026-05-06 15:03 | 49.49569 | -46.11469 | 39194 ft | 493 kts | 77° |
| 2026-05-06 15:04 | 49.50704 | -46.01070 | 39194 ft | 493 kts | 77° |
| 2026-05-06 15:04 | 49.51829 | -45.90665 | 39205 ft | 493 kts | 76° |
| 2026-05-06 15:05 | 49.52948 | -45.80233 | 39194 ft | 494 kts | 76° |
| 2026-05-06 15:05 | 49.54060 | -45.69783 | 39190 ft | 495 kts | 76° |
| 2026-05-06 15:06 | 49.55161 | -45.59331 | 39195 ft | 495 kts | 76° |
| 2026-05-06 15:06 | 49.56252 | -45.48878 | 39198 ft | 495 kts | 77° |
| 2026-05-06 15:07 | 49.57335 | -45.38406 | 39198 ft | 495 kts | 77° |
| 2026-05-06 15:07 | 49.58402 | -45.27996 | 39196 ft | 495 kts | 77° |
| 2026-05-06 15:08 | 49.59466 | -45.17529 | 39199 ft | 495 kts | 77° |
| 2026-05-06 15:08 | 49.60529 | -45.06967 | 39200 ft | 495 kts | 77° |
| 2026-05-06 15:09 | 49.61570 | -44.96525 | 39195 ft | 496 kts | 77° |
| 2026-05-06 15:09 | 49.62609 | -44.86005 | 39200 ft | 497 kts | 77° |
| 2026-05-06 15:10 | 49.63641 | -44.75445 | 39198 ft | 498 kts | 77° |
| 2026-05-06 15:10 | 49.64665 | -44.64869 | 39191 ft | 498 kts | 77° |
| 2026-05-06 15:11 | 49.65681 | -44.54275 | 39192 ft | 498 kts | 77° |
| 2026-05-06 15:11 | 49.66684 | -44.43699 | 39198 ft | 498 kts | 77° |
| 2026-05-06 15:12 | 49.67680 | -44.33100 | 39208 ft | 499 kts | 77° |
| 2026-05-06 15:12 | 49.68668 | -44.22487 | 39198 ft | 500 kts | 77° |
| 2026-05-06 15:13 | 49.69649 | -44.11846 | 39197 ft | 500 kts | 77° |
| 2026-05-06 15:13 | 49.70619 | -44.01199 | 39195 ft | 500 kts | 77° |
| 2026-05-06 15:14 | 49.71580 | -43.90535 | 39199 ft | 500 kts | 77° |
| 2026-05-06 15:14 | 49.72524 | -43.79959 | 39212 ft | 501 kts | 77° |
| 2026-05-06 15:15 | 49.73468 | -43.69270 | 39198 ft | 502 kts | 77° |
| 2026-05-06 15:15 | 49.74402 | -43.58574 | 39198 ft | 502 kts | 77° |
| 2026-05-06 15:16 | 49.75325 | -43.47878 | 39198 ft | 502 kts | 77° |
| 2026-05-06 15:16 | 49.76240 | -43.37167 | 39194 ft | 502 kts | 77° |
| 2026-05-06 15:17 | 49.77145 | -43.26468 | 39211 ft | 502 kts | 78° |
| 2026-05-06 15:17 | 49.77892 | -43.17566 | 39195 ft | 502 kts | 78° |
| 2026-05-06 15:18 | 49.78784 | -43.06852 | 39194 ft | 502 kts | 78° |
| 2026-05-06 15:18 | 49.79666 | -42.96136 | 39194 ft | 502 kts | 78° |
| 2026-05-06 15:19 | 49.80537 | -42.85414 | 39195 ft | 502 kts | 78° |
| 2026-05-06 15:19 | 49.81398 | -42.74697 | 39223 ft | 502 kts | 78° |
| 2026-05-06 15:20 | 49.82249 | -42.63975 | 39194 ft | 501 kts | 78° |
| 2026-05-06 15:20 | 49.83087 | -42.53280 | 39189 ft | 500 kts | 78° |
| 2026-05-06 15:21 | 49.83917 | -42.42579 | 39194 ft | 500 kts | 78° |
| 2026-05-06 15:21 | 49.84737 | -42.31872 | 39183 ft | 501 kts | 78° |
| 2026-05-06 15:22 | 49.85547 | -42.21155 | 39214 ft | 501 kts | 78° |
| 2026-05-06 15:22 | 49.86346 | -42.10442 | 39189 ft | 500 kts | 79° |
| 2026-05-06 15:23 | 49.87130 | -41.99808 | 39187 ft | 500 kts | 79° |
| 2026-05-06 15:23 | 49.87909 | -41.89102 | 39193 ft | 499 kts | 79° |
| 2026-05-06 15:24 | 49.88676 | -41.78414 | 39187 ft | 499 kts | 79° |
| 2026-05-06 15:24 | 49.89435 | -41.67714 | 39187 ft | 499 kts | 79° |
| 2026-05-06 15:25 | 49.90182 | -41.57024 | 39181 ft | 498 kts | 79° |
| 2026-05-06 15:25 | 49.90919 | -41.46339 | 39185 ft | 498 kts | 79° |
| 2026-05-06 15:26 | 49.91646 | -41.35659 | 39186 ft | 498 kts | 79° |
| 2026-05-06 15:26 | 49.92364 | -41.24964 | 39184 ft | 498 kts | 79° |
| 2026-05-06 15:27 | 49.93071 | -41.14276 | 39181 ft | 498 kts | 79° |
| 2026-05-06 15:27 | 49.93770 | -41.03575 | 39188 ft | 498 kts | 80° |
| 2026-05-06 15:28 | 49.94458 | -40.92873 | 39182 ft | 498 kts | 80° |
| 2026-05-06 15:28 | 49.95136 | -40.82165 | 39186 ft | 498 kts | 80° |
| 2026-05-06 15:29 | 49.95805 | -40.71450 | 39181 ft | 498 kts | 80° |
| 2026-05-06 15:29 | 49.96464 | -40.60727 | 39186 ft | 498 kts | 80° |
| 2026-05-06 15:30 | 49.97109 | -40.50071 | 39179 ft | 499 kts | 81° |
| 2026-05-06 15:30 | 49.97750 | -40.39323 | 39182 ft | 499 kts | 81° |
| 2026-05-06 15:31 | 49.98380 | -40.28579 | 39179 ft | 500 kts | 81° |
| 2026-05-06 15:31 | 49.99002 | -40.17812 | 39181 ft | 500 kts | 81° |
| 2026-05-06 15:32 | 49.99952 | -40.01667 | 39173 ft | 498 kts | 77° |
| 2026-05-06 15:32 | 50.01257 | -39.91138 | 39167 ft | 496 kts | 73° |
| 2026-05-06 15:33 | 50.02721 | -39.80671 | 39167 ft | 495 kts | 73° |
| 2026-05-06 15:33 | 50.04212 | -39.70211 | 39167 ft | 495 kts | 73° |
| 2026-05-06 15:34 | 50.05688 | -39.59735 | 39167 ft | 495 kts | 73° |
| 2026-05-06 15:34 | 50.07145 | -39.49255 | 39165 ft | 496 kts | 73° |
| 2026-05-06 15:35 | 50.08591 | -39.38754 | 39164 ft | 496 kts | 73° |
| 2026-05-06 15:35 | 50.10028 | -39.28236 | 39166 ft | 496 kts | 73° |
| 2026-05-06 15:36 | 50.11449 | -39.17768 | 39150 ft | 497 kts | 74° |
| 2026-05-06 15:36 | 50.12869 | -39.07224 | 39176 ft | 497 kts | 74° |
| 2026-05-06 15:37 | 50.14280 | -38.96682 | 39160 ft | 497 kts | 74° |
| 2026-05-06 15:37 | 50.15682 | -38.86125 | 39160 ft | 497 kts | 74° |
| 2026-05-06 15:38 | 50.17074 | -38.75559 | 39156 ft | 497 kts | 74° |
| 2026-05-06 15:38 | 50.18457 | -38.64988 | 39155 ft | 497 kts | 74° |
| 2026-05-06 15:39 | 50.19831 | -38.54407 | 39156 ft | 497 kts | 75° |
| 2026-05-06 15:39 | 50.21195 | -38.43823 | 39151 ft | 498 kts | 75° |
| 2026-05-06 15:40 | 50.22550 | -38.33229 | 39151 ft | 498 kts | 75° |
| 2026-05-06 15:40 | 50.23895 | -38.22626 | 39153 ft | 498 kts | 75° |
| 2026-05-06 15:41 | 50.25232 | -38.12012 | 39149 ft | 498 kts | 75° |
| 2026-05-06 15:41 | 50.26560 | -38.01386 | 39143 ft | 499 kts | 75° |
| 2026-05-06 15:42 | 50.27878 | -37.90750 | 39143 ft | 499 kts | 75° |
| 2026-05-06 15:42 | 50.29189 | -37.80089 | 39146 ft | 499 kts | 75° |
| 2026-05-06 15:43 | 50.30488 | -37.69436 | 39143 ft | 499 kts | 75° |
| 2026-05-06 15:43 | 50.31771 | -37.58838 | 39149 ft | 499 kts | 76° |
| 2026-05-06 15:44 | 50.33051 | -37.48175 | 39143 ft | 499 kts | 76° |
| 2026-05-06 15:44 | 50.34324 | -37.37483 | 39143 ft | 499 kts | 76° |
| 2026-05-06 15:45 | 50.35586 | -37.26796 | 39140 ft | 499 kts | 76° |
| 2026-05-06 15:45 | 50.36838 | -37.16099 | 39141 ft | 499 kts | 76° |
| 2026-05-06 15:46 | 50.38081 | -37.05398 | 39138 ft | 499 kts | 76° |
| 2026-05-06 15:46 | 50.39327 | -36.94723 | 39134 ft | 498 kts | 76° |
| 2026-05-06 15:47 | 50.40590 | -36.84040 | 39128 ft | 498 kts | 76° |
| 2026-05-06 15:47 | 50.41845 | -36.73365 | 39130 ft | 498 kts | 76° |
| 2026-05-06 15:48 | 50.43087 | -36.62678 | 39139 ft | 498 kts | 76° |
| 2026-05-06 15:48 | 50.44316 | -36.52002 | 39126 ft | 497 kts | 76° |
| 2026-05-06 15:49 | 50.45527 | -36.41390 | 39121 ft | 496 kts | 76° |
| 2026-05-06 15:49 | 50.46735 | -36.30713 | 39121 ft | 496 kts | 77° |
| 2026-05-06 15:50 | 50.47933 | -36.20029 | 39116 ft | 497 kts | 77° |
| 2026-05-06 15:50 | 50.49121 | -36.09349 | 39117 ft | 496 kts | 77° |
| 2026-05-06 15:51 | 50.50296 | -35.98684 | 39107 ft | 496 kts | 77° |
| 2026-05-06 15:51 | 50.51462 | -35.88011 | 39111 ft | 495 kts | 77° |
| 2026-05-06 15:52 | 50.52618 | -35.77338 | 39107 ft | 495 kts | 77° |
| 2026-05-06 15:52 | 50.53764 | -35.66654 | 39114 ft | 495 kts | 77° |
| 2026-05-06 15:53 | 50.54900 | -35.55979 | 39102 ft | 495 kts | 78° |